sensor_id;sensor_type;location;lat;lon;timestamp;temperature;humidity
22742;DHT22;11538;48.884;8.696;2023-02-04T00:00:12;7.80;99.90
22742;DHT22;11538;48.884;8.696;2023-02-04T00:02:43;7.80;99.90
22742;DHT22;11538;48.884;8.696;2023-02-04T00:05:10;7.80;99.90
22742;DHT22;11538;48.884;8.696;2023-02-04T00:07:38;7.80;99.90
22742;DHT22;11538;48.884;8.696;2023-02-04T00:10:07;7.80;99.90
22742;DHT22;11538;48.884;8.696;2023-02-04T00:12:34;7.80;99.90
22742;DHT22;11538;48.884;8.696;2023-02-04T00:15:02;7.80;99.90
22742;DHT22;11538;48.884;8.696;2023-02-04T00:17:29;7.80;99.90
22742;DHT22;11538;48.884;8.696;2023-02-04T00:19:56;7.80;99.90
22742;DHT22;11538;48.884;8.696;2023-02-04T00:22:23;7.80;99.90
22742;DHT22;11538;48.884;8.696;2023-02-04T00:24:51;7.80;99.90
22742;DHT22;11538;48.884;8.696;2023-02-04T00:27:18;7.80;99.90
22742;DHT22;11538;48.884;8.696;2023-02-04T00:29:45;7.80;99.90
22742;DHT22;11538;48.884;8.696;2023-02-04T00:32:11;7.80;99.90
22742;DHT22;11538;48.884;8.696;2023-02-04T00:34:39;7.80;99.90
22742;DHT22;11538;48.884;8.696;2023-02-04T00:37:06;7.80;99.90
22742;DHT22;11538;48.884;8.696;2023-02-04T00:39:33;7.80;99.90
22742;DHT22;11538;48.884;8.696;2023-02-04T00:41:59;7.90;99.90
22742;DHT22;11538;48.884;8.696;2023-02-04T00:44:26;7.90;99.90
22742;DHT22;11538;48.884;8.696;2023-02-04T00:46:53;7.90;99.90
22742;DHT22;11538;48.884;8.696;2023-02-04T00:49:20;7.80;99.90
22742;DHT22;11538;48.884;8.696;2023-02-04T00:51:47;7.90;99.90
22742;DHT22;11538;48.884;8.696;2023-02-04T00:54:14;7.80;99.90
22742;DHT22;11538;48.884;8.696;2023-02-04T00:56:43;7.90;99.90
22742;DHT22;11538;48.884;8.696;2023-02-04T00:59:10;7.80;99.90
22742;DHT22;11538;48.884;8.696;2023-02-04T01:01:37;7.80;99.90
22742;DHT22;11538;48.884;8.696;2023-02-04T01:04:04;7.80;99.90
22742;DHT22;11538;48.884;8.696;2023-02-04T01:06:31;7.80;99.90
22742;DHT22;11538;48.884;8.696;2023-02-04T01:08:58;7.80;99.90
22742;DHT22;11538;48.884;8.696;2023-02-04T01:11:25;7.80;99.90
22742;DHT22;11538;48.884;8.696;2023-02-04T01:13:54;7.80;99.90
22742;DHT22;11538;48.884;8.696;2023-02-04T01:16:20;7.80;99.90
22742;DHT22;11538;48.884;8.696;2023-02-04T01:18:47;7.80;99.90
22742;DHT22;11538;48.884;8.696;2023-02-04T01:21:14;7.90;99.90
22742;DHT22;11538;48.884;8.696;2023-02-04T01:23:41;7.80;99.90
22742;DHT22;11538;48.884;8.696;2023-02-04T01:26:07;7.80;99.90
22742;DHT22;11538;48.884;8.696;2023-02-04T01:28:34;7.80;99.90
22742;DHT22;11538;48.884;8.696;2023-02-04T01:31:01;7.80;99.90
22742;DHT22;11538;48.884;8.696;2023-02-04T01:33:28;7.80;1.00
22742;DHT22;11538;48.884;8.696;2023-02-04T01:35:55;7.80;99.90
22742;DHT22;11538;48.884;8.696;2023-02-04T01:38:22;7.80;99.90
22742;DHT22;11538;48.884;8.696;2023-02-04T01:40:49;7.80;99.90
22742;DHT22;11538;48.884;8.696;2023-02-04T01:43:16;7.80;99.90
22742;DHT22;11538;48.884;8.696;2023-02-04T01:45:48;7.90;99.90
22742;DHT22;11538;48.884;8.696;2023-02-04T01:48:16;7.80;99.90
22742;DHT22;11538;48.884;8.696;2023-02-04T01:50:50;7.90;99.90
22742;DHT22;11538;48.884;8.696;2023-02-04T01:53:21;7.80;99.90
22742;DHT22;11538;48.884;8.696;2023-02-04T01:55:51;7.90;99.90
22742;DHT22;11538;48.884;8.696;2023-02-04T01:58:18;7.80;99.90
22742;DHT22;11538;48.884;8.696;2023-02-04T02:00:45;7.90;99.90
22742;DHT22;11538;48.884;8.696;2023-02-04T02:03:12;7.90;99.90
22742;DHT22;11538;48.884;8.696;2023-02-04T02:05:41;7.90;99.90
22742;DHT22;11538;48.884;8.696;2023-02-04T02:08:10;7.90;99.90
22742;DHT22;11538;48.884;8.696;2023-02-04T02:10:39;7.90;99.90
22742;DHT22;11538;48.884;8.696;2023-02-04T02:13:09;7.90;99.90
22742;DHT22;11538;48.884;8.696;2023-02-04T02:15:38;7.80;99.90
22742;DHT22;11538;48.884;8.696;2023-02-04T02:18:06;7.90;99.90
22742;DHT22;11538;48.884;8.696;2023-02-04T02:20:33;7.90;99.90
22742;DHT22;11538;48.884;8.696;2023-02-04T02:23:01;7.90;99.90
22742;DHT22;11538;48.884;8.696;2023-02-04T02:25:40;7.90;99.90
22742;DHT22;11538;48.884;8.696;2023-02-04T02:28:09;7.90;99.90
22742;DHT22;11538;48.884;8.696;2023-02-04T02:30:38;7.90;99.90
22742;DHT22;11538;48.884;8.696;2023-02-04T02:33:05;7.90;99.90
22742;DHT22;11538;48.884;8.696;2023-02-04T02:35:33;7.90;99.90
22742;DHT22;11538;48.884;8.696;2023-02-04T02:38:00;7.80;99.90
22742;DHT22;11538;48.884;8.696;2023-02-04T02:40:27;7.80;99.90
22742;DHT22;11538;48.884;8.696;2023-02-04T02:42:54;7.80;99.90
22742;DHT22;11538;48.884;8.696;2023-02-04T02:45:24;7.80;99.90
22742;DHT22;11538;48.884;8.696;2023-02-04T02:47:53;7.80;99.90
22742;DHT22;11538;48.884;8.696;2023-02-04T02:50:22;7.80;99.90
22742;DHT22;11538;48.884;8.696;2023-02-04T02:52:51;7.80;99.90
22742;DHT22;11538;48.884;8.696;2023-02-04T02:55:20;7.80;99.90
22742;DHT22;11538;48.884;8.696;2023-02-04T02:57:49;7.80;99.90
22742;DHT22;11538;48.884;8.696;2023-02-04T03:00:24;7.80;99.90
22742;DHT22;11538;48.884;8.696;2023-02-04T03:02:55;7.80;99.90
22742;DHT22;11538;48.884;8.696;2023-02-04T03:05:27;7.80;99.90
22742;DHT22;11538;48.884;8.696;2023-02-04T03:07:57;7.80;99.90
22742;DHT22;11538;48.884;8.696;2023-02-04T03:10:25;7.70;99.90
22742;DHT22;11538;48.884;8.696;2023-02-04T03:12:51;7.80;99.90
22742;DHT22;11538;48.884;8.696;2023-02-04T03:15:19;7.80;99.90
22742;DHT22;11538;48.884;8.696;2023-02-04T03:17:46;7.80;99.90
22742;DHT22;11538;48.884;8.696;2023-02-04T03:22:41;7.80;1.00
22742;DHT22;11538;48.884;8.696;2023-02-04T03:25:08;7.80;99.90
22742;DHT22;11538;48.884;8.696;2023-02-04T03:27:34;7.80;99.90
22742;DHT22;11538;48.884;8.696;2023-02-04T03:30:01;7.80;99.90
22742;DHT22;11538;48.884;8.696;2023-02-04T03:32:28;7.80;99.90
22742;DHT22;11538;48.884;8.696;2023-02-04T03:34:55;7.80;99.90
22742;DHT22;11538;48.884;8.696;2023-02-04T03:37:21;7.80;99.90
22742;DHT22;11538;48.884;8.696;2023-02-04T03:39:48;7.80;99.90
22742;DHT22;11538;48.884;8.696;2023-02-04T03:42:15;7.80;99.90
22742;DHT22;11538;48.884;8.696;2023-02-04T03:44:43;7.80;99.90
22742;DHT22;11538;48.884;8.696;2023-02-04T03:47:10;7.80;99.90
22742;DHT22;11538;48.884;8.696;2023-02-04T03:49:36;7.80;99.90
22742;DHT22;11538;48.884;8.696;2023-02-04T03:52:03;7.80;99.90
22742;DHT22;11538;48.884;8.696;2023-02-04T03:54:30;7.80;99.90
22742;DHT22;11538;48.884;8.696;2023-02-04T03:57:00;7.80;99.90
22742;DHT22;11538;48.884;8.696;2023-02-04T03:59:27;7.70;99.90
22742;DHT22;11538;48.884;8.696;2023-02-04T04:01:53;7.70;99.90
22742;DHT22;11538;48.884;8.696;2023-02-04T04:04:20;7.70;99.90
22742;DHT22;11538;48.884;8.696;2023-02-04T04:06:47;7.70;99.90
22742;DHT22;11538;48.884;8.696;2023-02-04T04:09:14;7.60;99.90
22742;DHT22;11538;48.884;8.696;2023-02-04T04:11:41;7.60;99.90
22742;DHT22;11538;48.884;8.696;2023-02-04T04:14:07;7.50;99.90
22742;DHT22;11538;48.884;8.696;2023-02-04T04:16:34;7.50;99.90
22742;DHT22;11538;48.884;8.696;2023-02-04T04:19:01;7.50;99.90
22742;DHT22;11538;48.884;8.696;2023-02-04T04:21:28;7.50;99.90
22742;DHT22;11538;48.884;8.696;2023-02-04T04:23:55;7.50;99.90
22742;DHT22;11538;48.884;8.696;2023-02-04T04:26:21;7.50;99.90
22742;DHT22;11538;48.884;8.696;2023-02-04T04:28:48;7.40;99.90
22742;DHT22;11538;48.884;8.696;2023-02-04T04:31:15;7.40;99.90
22742;DHT22;11538;48.884;8.696;2023-02-04T04:33:42;7.40;99.90
22742;DHT22;11538;48.884;8.696;2023-02-04T04:36:09;7.40;1.00
22742;DHT22;11538;48.884;8.696;2023-02-04T04:38:35;7.40;99.90
22742;DHT22;11538;48.884;8.696;2023-02-04T04:41:02;7.40;99.90
22742;DHT22;11538;48.884;8.696;2023-02-04T04:43:29;7.30;99.90
22742;DHT22;11538;48.884;8.696;2023-02-04T04:45:56;7.40;99.90
22742;DHT22;11538;48.884;8.696;2023-02-04T04:48:22;7.40;99.90
22742;DHT22;11538;48.884;8.696;2023-02-04T04:50:50;7.30;99.90
22742;DHT22;11538;48.884;8.696;2023-02-04T04:53:17;7.30;99.90
22742;DHT22;11538;48.884;8.696;2023-02-04T04:55:44;7.30;99.90
22742;DHT22;11538;48.884;8.696;2023-02-04T04:58:11;7.30;99.90
22742;DHT22;11538;48.884;8.696;2023-02-04T05:00:37;7.30;99.90
22742;DHT22;11538;48.884;8.696;2023-02-04T05:03:04;7.30;99.90
22742;DHT22;11538;48.884;8.696;2023-02-04T05:05:31;7.40;99.90
22742;DHT22;11538;48.884;8.696;2023-02-04T05:07:59;7.40;99.90
22742;DHT22;11538;48.884;8.696;2023-02-04T05:10:26;7.40;99.90
22742;DHT22;11538;48.884;8.696;2023-02-04T05:12:52;7.40;99.90
22742;DHT22;11538;48.884;8.696;2023-02-04T05:15:19;7.40;99.90
22742;DHT22;11538;48.884;8.696;2023-02-04T05:17:46;7.40;99.90
22742;DHT22;11538;48.884;8.696;2023-02-04T05:20:13;7.40;99.90
22742;DHT22;11538;48.884;8.696;2023-02-04T05:22:40;7.40;99.90
22742;DHT22;11538;48.884;8.696;2023-02-04T05:25:07;7.40;99.90
22742;DHT22;11538;48.884;8.696;2023-02-04T05:27:34;7.40;99.90
22742;DHT22;11538;48.884;8.696;2023-02-04T05:30:01;7.40;99.90
22742;DHT22;11538;48.884;8.696;2023-02-04T05:32:27;7.40;99.90
22742;DHT22;11538;48.884;8.696;2023-02-04T05:34:54;7.40;99.90
22742;DHT22;11538;48.884;8.696;2023-02-04T05:37:21;7.40;99.90
22742;DHT22;11538;48.884;8.696;2023-02-04T05:39:48;7.40;99.90
22742;DHT22;11538;48.884;8.696;2023-02-04T05:42:14;7.40;99.90
22742;DHT22;11538;48.884;8.696;2023-02-04T05:44:41;7.40;99.90
22742;DHT22;11538;48.884;8.696;2023-02-04T05:47:08;7.40;99.90
22742;DHT22;11538;48.884;8.696;2023-02-04T05:49:35;7.40;99.90
22742;DHT22;11538;48.884;8.696;2023-02-04T05:52:02;7.40;99.90
22742;DHT22;11538;48.884;8.696;2023-02-04T05:54:29;7.40;99.90
22742;DHT22;11538;48.884;8.696;2023-02-04T05:56:56;7.40;99.90
22742;DHT22;11538;48.884;8.696;2023-02-04T05:59:23;7.40;99.90
22742;DHT22;11538;48.884;8.696;2023-02-04T06:01:50;7.40;99.90
22742;DHT22;11538;48.884;8.696;2023-02-04T06:04:16;7.40;99.90
22742;DHT22;11538;48.884;8.696;2023-02-04T06:06:43;7.40;99.90
22742;DHT22;11538;48.884;8.696;2023-02-04T06:09:10;7.40;99.90
22742;DHT22;11538;48.884;8.696;2023-02-04T06:11:37;7.40;99.90
22742;DHT22;11538;48.884;8.696;2023-02-04T06:14:04;7.40;99.90
22742;DHT22;11538;48.884;8.696;2023-02-04T06:16:31;7.30;99.90
22742;DHT22;11538;48.884;8.696;2023-02-04T06:18:58;7.40;99.90
22742;DHT22;11538;48.884;8.696;2023-02-04T06:21:25;7.30;99.90
22742;DHT22;11538;48.884;8.696;2023-02-04T06:23:51;7.40;99.90
22742;DHT22;11538;48.884;8.696;2023-02-04T06:26:18;7.40;99.90
22742;DHT22;11538;48.884;8.696;2023-02-04T06:28:45;7.30;99.90
22742;DHT22;11538;48.884;8.696;2023-02-04T06:31:11;7.30;99.90
22742;DHT22;11538;48.884;8.696;2023-02-04T06:33:38;7.30;99.90
22742;DHT22;11538;48.884;8.696;2023-02-04T06:36:05;7.30;99.90
22742;DHT22;11538;48.884;8.696;2023-02-04T06:38:32;7.40;99.90
22742;DHT22;11538;48.884;8.696;2023-02-04T06:40:59;7.30;99.90
22742;DHT22;11538;48.884;8.696;2023-02-04T06:43:25;7.30;99.90
22742;DHT22;11538;48.884;8.696;2023-02-04T06:45:53;7.30;99.90
22742;DHT22;11538;48.884;8.696;2023-02-04T06:48:20;7.30;99.90
22742;DHT22;11538;48.884;8.696;2023-02-04T06:50:47;7.30;99.90
22742;DHT22;11538;48.884;8.696;2023-02-04T06:53:14;7.30;99.90
22742;DHT22;11538;48.884;8.696;2023-02-04T06:55:40;7.30;99.90
22742;DHT22;11538;48.884;8.696;2023-02-04T06:58:07;7.30;99.90
22742;DHT22;11538;48.884;8.696;2023-02-04T07:00:35;7.30;99.90
22742;DHT22;11538;48.884;8.696;2023-02-04T07:03:01;7.30;99.90
22742;DHT22;11538;48.884;8.696;2023-02-04T07:05:28;7.30;99.90
22742;DHT22;11538;48.884;8.696;2023-02-04T07:07:55;7.30;99.90
22742;DHT22;11538;48.884;8.696;2023-02-04T07:10:22;7.30;99.90
22742;DHT22;11538;48.884;8.696;2023-02-04T07:12:48;7.30;99.90
22742;DHT22;11538;48.884;8.696;2023-02-04T07:15:15;7.30;99.90
22742;DHT22;11538;48.884;8.696;2023-02-04T07:17:42;7.30;99.90
22742;DHT22;11538;48.884;8.696;2023-02-04T07:20:10;7.30;99.90
22742;DHT22;11538;48.884;8.696;2023-02-04T07:22:37;7.30;99.90
22742;DHT22;11538;48.884;8.696;2023-02-04T07:25:04;7.30;99.90
22742;DHT22;11538;48.884;8.696;2023-02-04T07:27:31;7.30;99.90
22742;DHT22;11538;48.884;8.696;2023-02-04T07:29:57;7.30;99.90
22742;DHT22;11538;48.884;8.696;2023-02-04T07:32:24;7.30;99.90
22742;DHT22;11538;48.884;8.696;2023-02-04T07:34:53;7.30;99.90
22742;DHT22;11538;48.884;8.696;2023-02-04T07:37:20;7.30;99.90
22742;DHT22;11538;48.884;8.696;2023-02-04T07:39:46;7.30;99.90
22742;DHT22;11538;48.884;8.696;2023-02-04T07:42:13;7.30;99.90
22742;DHT22;11538;48.884;8.696;2023-02-04T07:44:40;7.30;99.90
22742;DHT22;11538;48.884;8.696;2023-02-04T07:47:08;7.30;99.90
22742;DHT22;11538;48.884;8.696;2023-02-04T07:49:34;7.30;99.90
22742;DHT22;11538;48.884;8.696;2023-02-04T07:52:01;7.30;99.90
22742;DHT22;11538;48.884;8.696;2023-02-04T07:54:28;7.30;99.90
22742;DHT22;11538;48.884;8.696;2023-02-04T07:56:55;7.30;99.90
22742;DHT22;11538;48.884;8.696;2023-02-04T07:59:22;7.40;99.90
22742;DHT22;11538;48.884;8.696;2023-02-04T08:01:49;7.30;99.90
22742;DHT22;11538;48.884;8.696;2023-02-04T08:04:15;7.40;99.90
22742;DHT22;11538;48.884;8.696;2023-02-04T08:06:42;7.40;99.90
22742;DHT22;11538;48.884;8.696;2023-02-04T08:09:09;7.40;99.90
22742;DHT22;11538;48.884;8.696;2023-02-04T08:11:35;7.40;99.90
22742;DHT22;11538;48.884;8.696;2023-02-04T08:14:02;7.40;99.90
22742;DHT22;11538;48.884;8.696;2023-02-04T08:16:29;7.50;99.90
22742;DHT22;11538;48.884;8.696;2023-02-04T08:18:56;7.50;99.90
22742;DHT22;11538;48.884;8.696;2023-02-04T08:21:22;7.50;99.90
22742;DHT22;11538;48.884;8.696;2023-02-04T08:23:49;7.50;99.90
22742;DHT22;11538;48.884;8.696;2023-02-04T08:26:16;7.50;99.90
22742;DHT22;11538;48.884;8.696;2023-02-04T08:28:43;7.50;99.90
22742;DHT22;11538;48.884;8.696;2023-02-04T08:31:09;7.60;99.90
22742;DHT22;11538;48.884;8.696;2023-02-04T08:33:38;7.70;99.90
22742;DHT22;11538;48.884;8.696;2023-02-04T08:36:05;7.70;99.90
22742;DHT22;11538;48.884;8.696;2023-02-04T08:38:33;7.80;99.90
22742;DHT22;11538;48.884;8.696;2023-02-04T08:40:59;7.80;99.90
22742;DHT22;11538;48.884;8.696;2023-02-04T08:43:26;7.90;99.90
22742;DHT22;11538;48.884;8.696;2023-02-04T08:45:53;7.90;99.90
22742;DHT22;11538;48.884;8.696;2023-02-04T08:48:20;7.90;99.90
22742;DHT22;11538;48.884;8.696;2023-02-04T08:50:47;7.90;99.90
22742;DHT22;11538;48.884;8.696;2023-02-04T08:53:13;8.00;99.90
22742;DHT22;11538;48.884;8.696;2023-02-04T08:55:40;8.00;99.90
22742;DHT22;11538;48.884;8.696;2023-02-04T08:58:07;8.00;99.90
22742;DHT22;11538;48.884;8.696;2023-02-04T09:00:34;8.10;99.90
22742;DHT22;11538;48.884;8.696;2023-02-04T09:03:01;8.10;99.90
22742;DHT22;11538;48.884;8.696;2023-02-04T09:05:28;8.20;99.90
22742;DHT22;11538;48.884;8.696;2023-02-04T09:07:55;8.20;99.90
22742;DHT22;11538;48.884;8.696;2023-02-04T09:10:21;8.30;99.90
22742;DHT22;11538;48.884;8.696;2023-02-04T09:12:48;8.30;99.90
22742;DHT22;11538;48.884;8.696;2023-02-04T09:15:15;8.30;99.90
22742;DHT22;11538;48.884;8.696;2023-02-04T09:17:42;8.40;99.90
22742;DHT22;11538;48.884;8.696;2023-02-04T09:20:09;8.40;99.90
22742;DHT22;11538;48.884;8.696;2023-02-04T09:22:36;8.50;99.90
22742;DHT22;11538;48.884;8.696;2023-02-04T09:25:03;8.50;99.90
22742;DHT22;11538;48.884;8.696;2023-02-04T09:27:30;8.50;99.90
22742;DHT22;11538;48.884;8.696;2023-02-04T09:29:57;8.60;99.90
22742;DHT22;11538;48.884;8.696;2023-02-04T09:32:23;8.60;99.90
22742;DHT22;11538;48.884;8.696;2023-02-04T09:34:50;8.60;99.90
22742;DHT22;11538;48.884;8.696;2023-02-04T09:37:17;8.70;99.90
22742;DHT22;11538;48.884;8.696;2023-02-04T09:39:44;8.70;99.90
22742;DHT22;11538;48.884;8.696;2023-02-04T09:42:14;8.80;99.90
22742;DHT22;11538;48.884;8.696;2023-02-04T09:44:41;8.70;99.90
22742;DHT22;11538;48.884;8.696;2023-02-04T09:47:11;8.80;99.90
22742;DHT22;11538;48.884;8.696;2023-02-04T09:49:42;8.80;99.90
22742;DHT22;11538;48.884;8.696;2023-02-04T09:52:12;8.80;99.90
22742;DHT22;11538;48.884;8.696;2023-02-04T09:54:41;8.90;99.90
22742;DHT22;11538;48.884;8.696;2023-02-04T09:57:12;8.90;99.90
22742;DHT22;11538;48.884;8.696;2023-02-04T09:59:43;8.90;99.90
22742;DHT22;11538;48.884;8.696;2023-02-04T10:02:16;9.00;99.90
22742;DHT22;11538;48.884;8.696;2023-02-04T10:04:48;9.00;99.90
22742;DHT22;11538;48.884;8.696;2023-02-04T10:07:17;9.00;99.90
22742;DHT22;11538;48.884;8.696;2023-02-04T10:09:47;9.10;99.90
22742;DHT22;11538;48.884;8.696;2023-02-04T10:12:15;9.00;99.90
22742;DHT22;11538;48.884;8.696;2023-02-04T10:14:42;9.10;99.90
22742;DHT22;11538;48.884;8.696;2023-02-04T10:17:17;9.00;99.90
22742;DHT22;11538;48.884;8.696;2023-02-04T10:19:47;9.10;99.90
22742;DHT22;11538;48.884;8.696;2023-02-04T10:22:18;9.10;99.90
22742;DHT22;11538;48.884;8.696;2023-02-04T10:24:47;9.10;99.90
22742;DHT22;11538;48.884;8.696;2023-02-04T10:27:13;9.10;99.90
22742;DHT22;11538;48.884;8.696;2023-02-04T10:30:05;9.10;99.90
22742;DHT22;11538;48.884;8.696;2023-02-04T10:32:34;9.00;99.90
22742;DHT22;11538;48.884;8.696;2023-02-04T10:35:01;9.00;99.90
22742;DHT22;11538;48.884;8.696;2023-02-04T10:37:28;9.00;99.90
22742;DHT22;11538;48.884;8.696;2023-02-04T10:39:57;9.00;99.90
22742;DHT22;11538;48.884;8.696;2023-02-04T10:42:25;9.00;99.90
22742;DHT22;11538;48.884;8.696;2023-02-04T10:44:53;9.00;99.90
22742;DHT22;11538;48.884;8.696;2023-02-04T10:47:22;9.00;99.90
22742;DHT22;11538;48.884;8.696;2023-02-04T10:52:23;9.10;99.90
22742;DHT22;11538;48.884;8.696;2023-02-04T10:54:55;9.20;99.90
22742;DHT22;11538;48.884;8.696;2023-02-04T10:57:25;9.20;99.90
22742;DHT22;11538;48.884;8.696;2023-02-04T10:59:54;9.30;99.90
22742;DHT22;11538;48.884;8.696;2023-02-04T11:02:36;9.30;99.90
22742;DHT22;11538;48.884;8.696;2023-02-04T11:05:16;9.30;99.90
22742;DHT22;11538;48.884;8.696;2023-02-04T11:07:46;9.30;99.90
22742;DHT22;11538;48.884;8.696;2023-02-04T11:10:15;9.30;99.90
22742;DHT22;11538;48.884;8.696;2023-02-04T11:12:45;9.30;99.90
22742;DHT22;11538;48.884;8.696;2023-02-04T11:20:47;9.40;99.90
22742;DHT22;11538;48.884;8.696;2023-02-04T11:26:08;9.50;99.90
22742;DHT22;11538;48.884;8.696;2023-02-04T11:33:45;9.80;99.90
22742;DHT22;11538;48.884;8.696;2023-02-04T11:36:14;9.90;99.90
22742;DHT22;11538;48.884;8.696;2023-02-04T11:38:43;10.00;99.90
22742;DHT22;11538;48.884;8.696;2023-02-04T11:41:15;10.10;99.90
22742;DHT22;11538;48.884;8.696;2023-02-04T11:43:58;10.20;99.90
22742;DHT22;11538;48.884;8.696;2023-02-04T11:46:25;10.20;99.90
22742;DHT22;11538;48.884;8.696;2023-02-04T11:48:56;10.20;99.90
22742;DHT22;11538;48.884;8.696;2023-02-04T11:51:28;10.20;99.90
22742;DHT22;11538;48.884;8.696;2023-02-04T11:53:58;10.10;99.90
22742;DHT22;11538;48.884;8.696;2023-02-04T11:56:26;10.00;99.90
22742;DHT22;11538;48.884;8.696;2023-02-04T11:58:55;10.00;99.90
22742;DHT22;11538;48.884;8.696;2023-02-04T12:01:28;9.90;99.90
22742;DHT22;11538;48.884;8.696;2023-02-04T12:03:57;10.00;99.90
22742;DHT22;11538;48.884;8.696;2023-02-04T12:06:30;10.10;99.90
22742;DHT22;11538;48.884;8.696;2023-02-04T12:09:05;10.20;99.90
22742;DHT22;11538;48.884;8.696;2023-02-04T12:11:51;10.20;99.90
22742;DHT22;11538;48.884;8.696;2023-02-04T12:14:19;10.30;99.90
22742;DHT22;11538;48.884;8.696;2023-02-04T12:16:47;10.30;99.90
22742;DHT22;11538;48.884;8.696;2023-02-04T12:19:18;10.30;99.90
22742;DHT22;11538;48.884;8.696;2023-02-04T12:21:45;10.30;99.90
22742;DHT22;11538;48.884;8.696;2023-02-04T12:24:12;10.40;99.90
22742;DHT22;11538;48.884;8.696;2023-02-04T12:26:39;10.40;99.90
22742;DHT22;11538;48.884;8.696;2023-02-04T12:29:06;10.50;99.90
22742;DHT22;11538;48.884;8.696;2023-02-04T12:31:33;10.50;99.90
22742;DHT22;11538;48.884;8.696;2023-02-04T12:34:01;10.50;99.90
22742;DHT22;11538;48.884;8.696;2023-02-04T12:36:28;10.60;99.90
22742;DHT22;11538;48.884;8.696;2023-02-04T12:38:55;10.70;99.90
22742;DHT22;11538;48.884;8.696;2023-02-04T12:41:26;10.90;99.90
22742;DHT22;11538;48.884;8.696;2023-02-04T12:43:53;11.10;99.90
22742;DHT22;11538;48.884;8.696;2023-02-04T12:46:21;11.40;99.90
22742;DHT22;11538;48.884;8.696;2023-02-04T12:48:49;11.60;99.90
22742;DHT22;11538;48.884;8.696;2023-02-04T12:51:16;11.60;99.90
22742;DHT22;11538;48.884;8.696;2023-02-04T12:53:42;11.60;99.90
22742;DHT22;11538;48.884;8.696;2023-02-04T12:56:09;11.70;99.90
22742;DHT22;11538;48.884;8.696;2023-02-04T12:58:36;11.70;99.90
22742;DHT22;11538;48.884;8.696;2023-02-04T13:01:03;11.60;99.90
22742;DHT22;11538;48.884;8.696;2023-02-04T13:03:30;11.60;99.90
22742;DHT22;11538;48.884;8.696;2023-02-04T13:05:58;11.50;99.90
22742;DHT22;11538;48.884;8.696;2023-02-04T13:08:24;11.40;99.90
22742;DHT22;11538;48.884;8.696;2023-02-04T13:10:51;11.30;99.90
22742;DHT22;11538;48.884;8.696;2023-02-04T13:13:19;11.10;99.90
22742;DHT22;11538;48.884;8.696;2023-02-04T13:15:47;11.00;99.90
22742;DHT22;11538;48.884;8.696;2023-02-04T13:18:14;10.90;99.90
22742;DHT22;11538;48.884;8.696;2023-02-04T13:20:43;10.80;99.90
22742;DHT22;11538;48.884;8.696;2023-02-04T13:23:11;10.70;99.90
22742;DHT22;11538;48.884;8.696;2023-02-04T13:25:38;10.50;99.90
22742;DHT22;11538;48.884;8.696;2023-02-04T13:28:06;10.50;99.90
22742;DHT22;11538;48.884;8.696;2023-02-04T13:30:33;10.40;99.90
22742;DHT22;11538;48.884;8.696;2023-02-04T13:32:59;10.30;99.90
22742;DHT22;11538;48.884;8.696;2023-02-04T13:35:26;10.30;99.90
22742;DHT22;11538;48.884;8.696;2023-02-04T13:37:53;10.20;99.90
22742;DHT22;11538;48.884;8.696;2023-02-04T13:40:22;10.10;99.90
22742;DHT22;11538;48.884;8.696;2023-02-04T13:42:48;10.10;99.90
22742;DHT22;11538;48.884;8.696;2023-02-04T13:45:15;10.00;99.90
22742;DHT22;11538;48.884;8.696;2023-02-04T13:47:44;9.90;99.90
22742;DHT22;11538;48.884;8.696;2023-02-04T13:50:14;9.90;99.90
22742;DHT22;11538;48.884;8.696;2023-02-04T13:52:44;9.90;99.90
22742;DHT22;11538;48.884;8.696;2023-02-04T13:55:10;10.10;99.90
22742;DHT22;11538;48.884;8.696;2023-02-04T13:57:37;10.40;99.90
22742;DHT22;11538;48.884;8.696;2023-02-04T14:00:05;10.70;99.90
22742;DHT22;11538;48.884;8.696;2023-02-04T14:02:32;11.10;99.90
22742;DHT22;11538;48.884;8.696;2023-02-04T14:05:00;11.40;99.90
22742;DHT22;11538;48.884;8.696;2023-02-04T14:07:27;11.60;99.90
22742;DHT22;11538;48.884;8.696;2023-02-04T14:09:53;11.70;99.90
22742;DHT22;11538;48.884;8.696;2023-02-04T14:12:20;11.80;99.90
22742;DHT22;11538;48.884;8.696;2023-02-04T14:14:47;11.70;99.90
22742;DHT22;11538;48.884;8.696;2023-02-04T14:17:14;11.60;99.90
22742;DHT22;11538;48.884;8.696;2023-02-04T14:19:40;11.40;99.90
22742;DHT22;11538;48.884;8.696;2023-02-04T14:22:07;11.30;99.90
22742;DHT22;11538;48.884;8.696;2023-02-04T14:24:38;11.20;99.90
22742;DHT22;11538;48.884;8.696;2023-02-04T14:27:08;11.10;99.90
22742;DHT22;11538;48.884;8.696;2023-02-04T14:29:35;11.00;99.90
22742;DHT22;11538;48.884;8.696;2023-02-04T14:32:02;11.00;99.90
22742;DHT22;11538;48.884;8.696;2023-02-04T14:34:29;10.90;99.90
22742;DHT22;11538;48.884;8.696;2023-02-04T14:36:56;10.80;99.90
22742;DHT22;11538;48.884;8.696;2023-02-04T14:39:23;10.80;99.90
22742;DHT22;11538;48.884;8.696;2023-02-04T14:41:49;10.70;99.90
22742;DHT22;11538;48.884;8.696;2023-02-04T14:44:16;10.70;99.90
22742;DHT22;11538;48.884;8.696;2023-02-04T14:46:46;10.60;99.90
22742;DHT22;11538;48.884;8.696;2023-02-04T14:49:14;10.50;99.90
22742;DHT22;11538;48.884;8.696;2023-02-04T14:51:42;10.50;99.90
22742;DHT22;11538;48.884;8.696;2023-02-04T14:54:09;10.40;99.90
22742;DHT22;11538;48.884;8.696;2023-02-04T14:56:36;10.30;99.90
22742;DHT22;11538;48.884;8.696;2023-02-04T14:59:03;10.30;99.90
22742;DHT22;11538;48.884;8.696;2023-02-04T15:01:30;10.30;99.90
22742;DHT22;11538;48.884;8.696;2023-02-04T15:03:57;10.30;99.90
22742;DHT22;11538;48.884;8.696;2023-02-04T15:06:24;10.20;99.90
22742;DHT22;11538;48.884;8.696;2023-02-04T15:08:51;10.10;99.90
22742;DHT22;11538;48.884;8.696;2023-02-04T15:11:18;10.10;99.90
22742;DHT22;11538;48.884;8.696;2023-02-04T15:13:45;10.00;99.90
22742;DHT22;11538;48.884;8.696;2023-02-04T15:16:12;10.00;99.90
22742;DHT22;11538;48.884;8.696;2023-02-04T15:18:40;9.90;99.90
22742;DHT22;11538;48.884;8.696;2023-02-04T15:21:08;9.90;99.90
22742;DHT22;11538;48.884;8.696;2023-02-04T15:23:35;9.80;99.90
22742;DHT22;11538;48.884;8.696;2023-02-04T15:26:02;9.70;99.90
22742;DHT22;11538;48.884;8.696;2023-02-04T15:28:29;9.70;99.90
22742;DHT22;11538;48.884;8.696;2023-02-04T15:30:57;9.60;99.90
22742;DHT22;11538;48.884;8.696;2023-02-04T15:33:24;9.50;99.90
22742;DHT22;11538;48.884;8.696;2023-02-04T15:35:51;9.50;99.90
22742;DHT22;11538;48.884;8.696;2023-02-04T15:38:17;9.40;99.90
22742;DHT22;11538;48.884;8.696;2023-02-04T15:40:44;9.40;99.90
22742;DHT22;11538;48.884;8.696;2023-02-04T15:43:11;9.40;99.90
22742;DHT22;11538;48.884;8.696;2023-02-04T15:45:38;9.30;99.90
22742;DHT22;11538;48.884;8.696;2023-02-04T15:48:07;9.20;99.90
22742;DHT22;11538;48.884;8.696;2023-02-04T15:50:34;9.20;99.90
22742;DHT22;11538;48.884;8.696;2023-02-04T15:53:01;9.20;99.90
22742;DHT22;11538;48.884;8.696;2023-02-04T15:55:29;9.10;99.90
22742;DHT22;11538;48.884;8.696;2023-02-04T15:57:56;9.10;99.90
22742;DHT22;11538;48.884;8.696;2023-02-04T16:00:23;9.00;99.90
22742;DHT22;11538;48.884;8.696;2023-02-04T16:02:50;9.00;99.90